Pagrindinis puslapis
METAR-TAF:

METAR-TAF

Oro uostai :

Kampečė, Meksika

platuma: 19-51N, ilguma: 090-33W, Aukštis: 5 m

Dabartinis oras

Ataskaita buvo paskelbta 1 valandą ir 0 minutes, ne 14:49 UTC
Vėjas 16 kt iš Pietryčių
Temperatūra 30°C
Drėgmė 59%
Slėgis 1013 hPa
Matomumas: 11.3 km
Giedras dangus

METAR: MMCP 211449Z 14016KT 7SM SKC 30/21 A2991 RMK SLP117 52012 964

Laikas: 10:49 (15:49 UTC)

Prognozė

Ataskaita buvo paskelbta 10 valandos ir 48 minutes, ne 05:01 UTC
Prognozė galioja nuo 21 metu 06 UTC su 22 metu 06 UTC
Vėjas kt iš Šiaurės
Matomumas: 10 km
Giedras dangus
Tapsmas
nuo 21 metu 09 UTC su 21 metu 10 UTC
Vėjas 12 kt iš Rytų/Pietryčių
Nuo 21 metu 1800 UTC
Vėjas 18 kt iš Šiaurės
Matomumas: 10 km
Išsisklaidę debesys ne aukštis 4000 ft
Su prošvaistėmis ne aukštis 25000 ft
Nuo 22 metu 0500 UTC
Vėjas 8 kt iš Šiaurės/Šiaurės Vakarų
Matomumas: 10 km
Išsisklaidę debesys ne aukštis 3000 ft

TAF: MMCP 210501Z 2106/2206 00000KT P6SM SKC BECMG 2109/2110 12012KT FM211800 35018KT P6SM SCT040 BKN250 FM220500 34008KT P6SM SCT030

Orai ataskaitas ir orų prognozės (METAR, TAF).

turimą stotys yra geltonos ir raudonos taškus žemėlapyje.

Perkelti pele per norėdami pamatyti stoties vardą.

Tada spustelėkite, norėdami matyti oro stebėjimo ir prognozės.

Norėdami pakeisti žemėlapį: spustelėkite ant žalios mygtukų su juodo kryžiaus žemyn,; žalią mygtuką su brūkšneliu, jei norite nutolinti; arba žalių rodyklių gretimoms žemėlapius.


METAR-TAF: